Time;durP1;ratioP1;P1;durP2;ratioP2;P2;SDS_P1;SDS_P2;PMS_P1;PMS_P2;Temp;Humidity;BMP_temperature;BMP_pressure;BME280_temperature;BME280_humidity;BME280_pressure;Samples;Min_cycle;Max_cycle;Signal;HPM_P1;HPM_P2
2022/04/09 00:00:30;;;;;;;;;;;5.90;99.90;;;;;;6099491;23;19923;-85
2022/04/09 00:02:59;;;;;;;;;;;6.00;99.90;;;;;;6075805;23;19921;-84
2022/04/09 00:05:28;;;;;;;;;;;5.90;99.90;;;;;;6101686;23;19921;-85
2022/04/09 00:07:55;;;;;;;;;;;5.50;99.90;;;;;;6128715;23;19928;-86
2022/04/09 00:10:22;;;;;;;;;;;5.80;99.90;;;;;;6127778;23;19924;-85
2022/04/09 00:12:50;;;;;;;;;;;5.40;99.90;;;;;;6101326;23;19921;-86
2022/04/09 00:15:18;;;;;;;;;;;5.70;99.90;;;;;;6127516;23;19925;-85
2022/04/09 00:17:48;;;;;;;;;;;5.70;99.90;;;;;;6128218;23;19921;-86
2022/04/09 00:20:17;;;;;;;;;;;5.70;99.90;;;;;;6105938;23;19921;-85
2022/04/09 00:22:47;;;;;;;;;;;5.70;99.90;;;;;;6128696;23;19936;-86
2022/04/09 00:25:21;;;;;;;;;;;5.70;99.90;;;;;;6135965;23;19925;-86
2022/04/09 00:27:49;;;;;;;;;;;5.70;99.90;;;;;;6133417;23;19925;-85
2022/04/09 00:30:17;;;;;;;;;;;5.70;99.90;;;;;;6114282;23;19921;-85
2022/04/09 00:32:44;;;;;;;;;;;5.90;99.90;;;;;;6137135;23;19943;-86
2022/04/09 00:35:12;;;;;;;;;;;5.70;99.90;;;;;;6133833;23;19924;-86
2022/04/09 00:37:44;;;;;;;;;;;5.60;99.90;;;;;;6135171;23;19927;-85
2022/04/09 00:40:14;;;;;;;;;;;5.60;99.90;;;;;;6135830;23;19921;-85
2022/04/09 00:42:42;;;;;;;;;;;5.60;99.90;;;;;;6138903;23;19965;-85
2022/04/09 00:45:11;;;;;;;;;;;5.50;99.90;;;;;;6131761;23;19944;-84
2022/04/09 00:47:39;;;;;;;;;;;5.50;99.90;;;;;;6160140;23;19928;-84
2022/04/09 00:50:08;;;;;;;;;;;6.10;99.90;;;;;;6134415;23;19925;-86
2022/04/09 00:52:39;;;;;;;;;;;5.50;99.90;;;;;;6137828;23;20257;-85
2022/04/09 00:55:07;;;;;;;;;;;5.50;99.90;;;;;;6109679;23;19931;-84
2022/04/09 00:57:35;;;;;;;;;;;5.50;99.90;;;;;;6130997;23;19928;-86
2022/04/09 01:00:09;;;;;;;;;;;5.50;99.90;;;;;;6130002;23;19925;-84
2022/04/09 01:02:40;;;;;;;;;;;5.60;99.90;;;;;;6130398;23;19924;-85
2022/04/09 01:05:07;;;;;;;;;;;5.60;99.90;;;;;;6130882;23;19921;-86
2022/04/09 01:07:35;;;;;;;;;;;5.60;99.90;;;;;;6128464;23;19931;-86
2022/04/09 01:10:08;;;;;;;;;;;5.50;99.90;;;;;;6152853;23;19925;-86
2022/04/09 01:12:39;;;;;;;;;;;5.40;99.90;;;;;;6107315;23;19932;-86
2022/04/09 01:15:11;;;;;;;;;;;5.40;99.90;;;;;;6130401;23;19925;-87
2022/04/09 01:17:41;;;;;;;;;;;5.40;99.90;;;;;;6126244;23;19931;-86
2022/04/09 01:20:16;;;;;;;;;;;5.40;99.90;;;;;;6127651;23;20252;-85
2022/04/09 01:22:44;;;;;;;;;;;5.30;99.90;;;;;;6129741;23;19921;-86
2022/04/09 01:25:13;;;;;;;;;;;5.40;99.90;;;;;;6131126;23;19932;-85
2022/04/09 01:27:42;;;;;;;;;;;5.30;99.90;;;;;;6106596;23;19920;-85
2022/04/09 01:30:11;;;;;;;;;;;5.30;99.90;;;;;;6136958;23;20416;-86
2022/04/09 01:32:39;;;;;;;;;;;5.30;99.90;;;;;;6135305;23;19932;-86
2022/04/09 01:35:08;;;;;;;;;;;5.30;99.90;;;;;;6168812;23;19921;-87
2022/04/09 01:37:38;;;;;;;;;;;5.20;99.90;;;;;;6137200;23;19931;-87
2022/04/09 01:40:07;;;;;;;;;;;5.20;99.90;;;;;;6139462;23;19931;-86
2022/04/09 01:42:36;;;;;;;;;;;5.20;99.90;;;;;;6128954;23;19924;-85
2022/04/09 01:45:06;;;;;;;;;;;5.20;99.90;;;;;;6103588;23;19921;-85
2022/04/09 01:47:36;;;;;;;;;;;5.20;99.90;;;;;;6127639;23;19921;-85
2022/04/09 01:50:04;;;;;;;;;;;5.10;99.90;;;;;;6128170;23;19921;-85
2022/04/09 01:52:32;;;;;;;;;;;5.10;99.90;;;;;;6150643;23;19925;-84
2022/04/09 01:55:00;;;;;;;;;;;5.00;99.90;;;;;;6132363;23;19925;-84
2022/04/09 01:57:28;;;;;;;;;;;4.90;99.90;;;;;;6152890;23;19921;-85
2022/04/09 01:59:56;;;;;;;;;;;4.80;99.90;;;;;;6102271;23;19925;-87
2022/04/09 02:02:24;;;;;;;;;;;4.80;99.90;;;;;;6129164;23;19929;-85
2022/04/09 02:04:51;;;;;;;;;;;4.80;99.90;;;;;;6126898;23;20349;-86
2022/04/09 02:07:19;;;;;;;;;;;4.70;99.90;;;;;;6154883;23;19944;-85
2022/04/09 02:09:47;;;;;;;;;;;4.70;99.90;;;;;;6128540;23;19925;-84
2022/04/09 02:12:15;;;;;;;;;;;4.60;99.90;;;;;;6151062;23;19921;-85
2022/04/09 02:14:43;;;;;;;;;;;4.50;99.90;;;;;;6128802;23;19921;-86
2022/04/09 02:17:12;;;;;;;;;;;4.60;99.90;;;;;;6124753;23;19925;-86
2022/04/09 02:19:39;;;;;;;;;;;4.60;99.90;;;;;;6128510;23;19921;-87
2022/04/09 02:22:08;;;;;;;;;;;4.50;99.90;;;;;;6124212;23;19925;-85
2022/04/09 02:24:36;;;;;;;;;;;4.30;99.90;;;;;;6131345;23;19921;-85
2022/04/09 02:27:04;;;;;;;;;;;4.70;99.90;;;;;;6125637;23;19924;-85
2022/04/09 02:29:32;;;;;;;;;;;4.50;99.90;;;;;;6130701;23;20262;-85
2022/04/09 02:32:02;;;;;;;;;;;4.50;99.90;;;;;;6127650;23;19921;-86
2022/04/09 02:34:30;;;;;;;;;;;4.50;99.90;;;;;;6126749;23;20311;-85
2022/04/09 02:36:57;;;;;;;;;;;4.50;99.90;;;;;;6103204;23;19932;-85
2022/04/09 02:39:25;;;;;;;;;;;4.50;99.90;;;;;;6100009;23;19928;-86
2022/04/09 02:41:53;;;;;;;;;;;4.50;99.90;;;;;;6124506;23;19944;-86
2022/04/09 02:44:23;;;;;;;;;;;4.50;99.90;;;;;;6123725;23;20258;-86
2022/04/09 02:46:50;;;;;;;;;;;4.40;99.90;;;;;;6128030;23;20360;-86
2022/04/09 02:49:19;;;;;;;;;;;4.50;99.90;;;;;;6100061;23;19921;-85
2022/04/09 02:51:48;;;;;;;;;;;4.40;99.90;;;;;;6080169;23;19924;-85
2022/04/09 02:54:17;;;;;;;;;;;4.50;99.90;;;;;;6100101;23;19931;-85
2022/04/09 02:56:48;;;;;;;;;;;4.40;99.90;;;;;;6098640;23;19921;-87
2022/04/09 02:59:20;;;;;;;;;;;4.30;99.90;;;;;;6099668;23;19928;-85
2022/04/09 03:01:48;;;;;;;;;;;4.30;99.90;;;;;;6102005;23;19932;-88
2022/04/09 03:04:17;;;;;;;;;;;4.30;99.90;;;;;;6123517;23;19928;-86
2022/04/09 03:06:45;;;;;;;;;;;4.30;99.90;;;;;;6103887;23;19921;-86
2022/04/09 03:09:14;;;;;;;;;;;4.20;99.90;;;;;;6101298;23;19948;-85
2022/04/09 03:11:43;;;;;;;;;;;3.90;99.90;;;;;;6100270;23;19931;-85
2022/04/09 03:14:10;;;;;;;;;;;4.20;99.90;;;;;;6101549;23;19925;-86
2022/04/09 03:16:40;;;;;;;;;;;4.10;99.90;;;;;;6101450;23;19928;-86
2022/04/09 03:19:08;;;;;;;;;;;3.80;99.90;;;;;;6108401;23;19921;-91
2022/04/09 03:21:36;;;;;;;;;;;4.00;99.90;;;;;;6134031;23;19927;-89
2022/04/09 03:24:05;;;;;;;;;;;4.00;99.90;;;;;;6133748;23;19921;-89
2022/04/09 03:26:34;;;;;;;;;;;4.00;99.90;;;;;;6132713;23;19921;-89
2022/04/09 03:29:03;;;;;;;;;;;4.00;99.90;;;;;;6106469;23;19921;-89
2022/04/09 03:31:34;;;;;;;;;;;3.90;99.90;;;;;;6104859;23;19924;-88
2022/04/09 03:34:04;;;;;;;;;;;3.90;99.90;;;;;;6114162;23;19931;-87
2022/04/09 03:36:33;;;;;;;;;;;3.90;99.90;;;;;;6159087;23;19931;-87
2022/04/09 03:39:02;;;;;;;;;;;3.90;99.90;;;;;;6139941;23;19935;-87
2022/04/09 03:41:30;;;;;;;;;;;2.80;99.90;;;;;;6136332;23;19924;-87
2022/04/09 03:44:01;;;;;;;;;;;4.20;99.90;;;;;;6138314;23;19947;-87
2022/04/09 03:46:40;;;;;;;;;;;3.80;99.90;;;;;;6159708;23;19921;-86
2022/04/09 03:49:13;;;;;;;;;;;3.80;99.90;;;;;;6133109;23;19927;-84
2022/04/09 03:51:43;;;;;;;;;;;3.70;99.90;;;;;;6130679;23;19925;-86
2022/04/09 03:54:13;;;;;;;;;;;3.70;99.90;;;;;;6152371;23;19921;-88
2022/04/09 03:56:43;;;;;;;;;;;3.70;99.90;;;;;;6128842;23;19931;-87
2022/04/09 03:59:13;;;;;;;;;;;3.70;99.90;;;;;;6127977;23;19924;-86
2022/04/09 04:01:47;;;;;;;;;;;3.70;99.90;;;;;;6147170;23;19920;-83
2022/04/09 04:04:16;;;;;;;;;;;3.70;99.90;;;;;;6126882;23;19925;-85
2022/04/09 04:06:45;;;;;;;;;;;2.70;99.90;;;;;;6147401;23;19928;-86
2022/04/09 04:09:14;;;;;;;;;;;3.60;99.90;;;;;;6125897;23;19928;-85
2022/04/09 04:11:44;;;;;;;;;;;3.60;99.90;;;;;;6099412;23;19928;-85
2022/04/09 04:14:12;;;;;;;;;;;4.00;99.90;;;;;;6123378;23;20385;-84
2022/04/09 04:16:39;;;;;;;;;;;3.60;99.90;;;;;;6123959;23;19921;-85
2022/04/09 04:19:08;;;;;;;;;;;3.50;99.90;;;;;;6123385;23;19925;-85
2022/04/09 04:21:38;;;;;;;;;;;3.50;99.90;;;;;;6115503;23;19928;-85
2022/04/09 04:24:09;;;;;;;;;;;3.50;99.90;;;;;;6128179;23;19925;-85
2022/04/09 04:26:37;;;;;;;;;;;3.50;99.90;;;;;;6076589;23;19929;-85
2022/04/09 04:29:14;;;;;;;;;;;3.40;99.90;;;;;;6148956;23;19921;-85
2022/04/09 04:31:41;;;;;;;;;;;3.40;99.90;;;;;;6124974;23;19920;-85
2022/04/09 04:34:09;;;;;;;;;;;3.40;99.90;;;;;;6101037;23;19943;-85
2022/04/09 04:36:42;;;;;;;;;;;3.40;99.90;;;;;;6126118;23;19932;-85
2022/04/09 04:39:12;;;;;;;;;;;3.40;99.90;;;;;;6151841;23;19921;-85
2022/04/09 04:41:42;;;;;;;;;;;2.30;99.90;;;;;;6101098;23;19925;-84
2022/04/09 04:44:10;;;;;;;;;;;3.40;99.90;;;;;;6126971;23;19932;-85
2022/04/09 04:46:43;;;;;;;;;;;3.40;99.90;;;;;;6126172;23;19921;-84
2022/04/09 04:49:17;;;;;;;;;;;3.30;99.90;;;;;;6128695;23;19925;-85
2022/04/09 04:51:47;;;;;;;;;;;3.30;99.90;;;;;;6124222;23;20246;-86
2022/04/09 04:54:16;;;;;;;;;;;3.30;99.90;;;;;;6103538;23;19927;-89
2022/04/09 04:56:45;;;;;;;;;;;3.30;99.90;;;;;;6131321;23;19920;-88
2022/04/09 04:59:12;;;;;;;;;;;2.30;99.90;;;;;;6102455;23;19921;-89
2022/04/09 05:01:42;;;;;;;;;;;3.50;99.90;;;;;;6155685;23;19921;-86
2022/04/09 05:04:12;;;;;;;;;;;3.20;99.90;;;;;;6129481;23;19924;-89
2022/04/09 05:06:56;;;;;;;;;;;3.20;99.90;;;;;;6155332;23;19925;-85
2022/04/09 05:09:25;;;;;;;;;;;3.20;99.90;;;;;;6104714;23;19927;-87
2022/04/09 05:11:55;;;;;;;;;;;3.20;99.90;;;;;;6154500;23;19924;-87
2022/04/09 05:14:35;;;;;;;;;;;3.30;99.90;;;;;;6137981;23;19935;-86
2022/04/09 05:17:09;;;;;;;;;;;2.80;99.90;;;;;;6160263;23;19921;-85
2022/04/09 05:19:38;;;;;;;;;;;3.20;99.90;;;;;;6132934;23;19927;-89
2022/04/09 05:22:11;;;;;;;;;;;3.10;99.90;;;;;;6158595;23;19921;-90
2022/04/09 05:24:51;;;;;;;;;;;3.10;99.90;;;;;;6136689;23;19921;-87
2022/04/09 05:27:18;;;;;;;;;;;3.10;99.90;;;;;;6129176;23;19932;-85
2022/04/09 05:29:46;;;;;;;;;;;3.20;99.90;;;;;;6132977;23;19921;-83
2022/04/09 05:32:19;;;;;;;;;;;3.10;99.90;;;;;;6126785;23;19925;-88
2022/04/09 05:34:47;;;;;;;;;;;3.10;99.90;;;;;;6129061;23;19921;-84
2022/04/09 05:37:15;;;;;;;;;;;3.10;99.90;;;;;;6157498;23;20329;-86
2022/04/09 05:39:47;;;;;;;;;;;3.00;99.90;;;;;;6103838;23;19921;-86
2022/04/09 05:42:16;;;;;;;;;;;3.10;99.90;;;;;;6154568;23;19927;-85
2022/04/09 05:44:44;;;;;;;;;;;3.00;99.90;;;;;;6156442;23;20253;-84
2022/04/09 05:47:12;;;;;;;;;;;3.00;99.90;;;;;;6132956;23;20241;-84
2022/04/09 05:49:41;;;;;;;;;;;3.10;99.90;;;;;;6155415;23;19921;-85
2022/04/09 05:52:10;;;;;;;;;;;3.10;99.90;;;;;;6138563;23;19921;-85
2022/04/09 05:54:39;;;;;;;;;;;3.10;99.90;;;;;;6156779;23;19931;-85
2022/04/09 05:57:13;;;;;;;;;;;3.10;99.90;;;;;;6131561;23;19920;-85
2022/04/09 05:59:44;;;;;;;;;;;2.70;99.90;;;;;;6110024;23;19928;-87
2022/04/09 06:02:16;;;;;;;;;;;3.10;99.90;;;;;;6135083;23;20607;-85
2022/04/09 06:04:44;;;;;;;;;;;3.20;99.90;;;;;;6106634;23;19921;-86
2022/04/09 06:07:13;;;;;;;;;;;1.40;99.90;;;;;;6131569;23;20297;-87
2022/04/09 06:09:55;;;;;;;;;;;3.20;99.90;;;;;;6105788;23;19931;-84
2022/04/09 06:12:23;;;;;;;;;;;3.30;99.90;;;;;;6128950;23;19928;-83
2022/04/09 06:15:03;;;;;;;;;;;3.30;99.90;;;;;;6129277;23;20183;-84
2022/04/09 06:17:41;;;;;;;;;;;3.30;99.90;;;;;;6154841;23;19921;-84
2022/04/09 06:20:09;;;;;;;;;;;2.30;99.90;;;;;;6109665;23;19923;-86
2022/04/09 06:22:41;;;;;;;;;;;3.60;99.90;;;;;;6130629;23;19921;-84
2022/04/09 06:25:12;;;;;;;;;;;3.60;99.90;;;;;;6133518;23;19925;-84
2022/04/09 06:27:42;;;;;;;;;;;3.50;99.90;;;;;;6157910;23;19921;-85
2022/04/09 06:30:13;;;;;;;;;;;3.50;99.90;;;;;;6134349;23;19927;-85
2022/04/09 06:32:49;;;;;;;;;;;3.60;99.90;;;;;;6134351;23;19921;-84
2022/04/09 06:35:27;;;;;;;;;;;3.60;99.90;;;;;;6137609;23;19994;-84
2022/04/09 06:37:55;;;;;;;;;;;3.70;99.90;;;;;;6112171;23;19925;-84
2022/04/09 06:40:26;;;;;;;;;;;3.60;99.90;;;;;;6111279;23;19921;-84
2022/04/09 06:42:59;;;;;;;;;;;3.80;99.90;;;;;;6110274;23;19935;-85
2022/04/09 06:45:46;;;;;;;;;;;3.80;99.90;;;;;;6136282;23;19925;-84
2022/04/09 06:48:38;;;;;;;;;;;3.90;99.90;;;;;;6098090;23;19921;-85
2022/04/09 06:51:26;;;;;;;;;;;3.90;99.90;;;;;;6114826;23;19936;-84
2022/04/09 06:54:07;;;;;;;;;;;3.90;99.90;;;;;;6112454;23;19921;-83
2022/04/09 06:56:37;;;;;;;;;;;4.00;99.90;;;;;;6135256;23;19925;-85
2022/04/09 06:59:05;;;;;;;;;;;3.40;99.90;;;;;;6133053;23;19927;-86
2022/04/09 07:01:38;;;;;;;;;;;3.80;99.90;;;;;;6085423;23;19927;-86
2022/04/09 07:04:07;;;;;;;;;;;4.10;99.90;;;;;;6109342;23;19931;-85
2022/04/09 07:06:41;;;;;;;;;;;4.10;99.90;;;;;;6131509;23;19955;-85
2022/04/09 07:09:11;;;;;;;;;;;4.20;99.90;;;;;;6145359;23;20216;-85
2022/04/09 07:11:43;;;;;;;;;;;4.20;99.90;;;;;;6110185;23;19921;-84
2022/04/09 07:14:13;;;;;;;;;;;4.30;99.90;;;;;;6109408;23;19921;-83
2022/04/09 07:16:47;;;;;;;;;;;4.40;99.90;;;;;;6107972;23;19911;-84
2022/04/09 07:19:17;;;;;;;;;;;4.40;99.90;;;;;;6109935;23;19921;-84
2022/04/09 07:21:48;;;;;;;;;;;4.50;99.90;;;;;;6136029;23;19921;-85
2022/04/09 07:24:18;;;;;;;;;;;4.60;99.90;;;;;;6136756;23;19931;-85
2022/04/09 07:26:47;;;;;;;;;;;4.60;99.90;;;;;;6114652;23;19921;-84
2022/04/09 07:29:17;;;;;;;;;;;4.70;99.90;;;;;;6114762;23;19931;-85
2022/04/09 07:31:46;;;;;;;;;;;4.70;99.90;;;;;;6114953;23;19923;-86
2022/04/09 07:34:15;;;;;;;;;;;4.80;99.90;;;;;;6139729;23;19947;-85
2022/04/09 07:36:44;;;;;;;;;;;3.60;99.90;;;;;;6154521;23;19925;-84
2022/04/09 07:39:17;;;;;;;;;;;4.90;99.90;;;;;;6106153;23;19921;-83
2022/04/09 07:41:56;;;;;;;;;;;5.00;99.90;;;;;;6128423;23;19940;-84
2022/04/09 07:44:26;;;;;;;;;;;5.80;99.90;;;;;;6131376;23;20350;-85
2022/04/09 07:46:55;;;;;;;;;;;5.00;99.90;;;;;;6103766;23;19921;-84
2022/04/09 07:49:27;;;;;;;;;;;5.10;99.90;;;;;;6128112;23;19927;-85
2022/04/09 07:51:55;;;;;;;;;;;5.20;99.90;;;;;;6131615;23;19932;-85
2022/04/09 07:54:24;;;;;;;;;;;5.30;99.90;;;;;;6152050;23;19928;-85
2022/04/09 07:56:53;;;;;;;;;;;5.80;99.90;;;;;;6126875;23;19932;-86
2022/04/09 07:59:35;;;;;;;;;;;4.40;99.90;;;;;;6125913;23;19920;-85
2022/04/09 08:02:07;;;;;;;;;;;5.40;99.90;;;;;;6126459;23;19925;-85
2022/04/09 08:04:36;;;;;;;;;;;5.50;99.90;;;;;;6151514;23;19932;-84
2022/04/09 08:07:04;;;;;;;;;;;5.60;99.90;;;;;;6125599;23;19921;-85
2022/04/09 08:09:32;;;;;;;;;;;5.70;99.90;;;;;;6129163;23;19925;-84
2022/04/09 08:12:03;;;;;;;;;;;5.80;99.90;;;;;;6152425;23;19921;-85
2022/04/09 08:14:33;;;;;;;;;;;6.00;99.90;;;;;;6100967;23;19928;-84
2022/04/09 08:17:01;;;;;;;;;;;5.90;99.90;;;;;;6124477;23;20303;-86
2022/04/09 08:19:31;;;;;;;;;;;6.00;99.90;;;;;;6126071;23;19940;-85
2022/04/09 08:21:59;;;;;;;;;;;6.10;99.90;;;;;;6128926;23;19921;-84
2022/04/09 08:24:27;;;;;;;;;;;6.10;99.90;;;;;;6127156;23;19974;-85
2022/04/09 08:26:55;;;;;;;;;;;6.20;99.90;;;;;;6123204;23;19921;-85
2022/04/09 08:29:24;;;;;;;;;;;6.30;99.90;;;;;;6129810;23;19921;-84
2022/04/09 08:31:52;;;;;;;;;;;6.40;99.90;;;;;;6150710;23;20382;-86
2022/04/09 08:34:21;;;;;;;;;;;6.40;99.90;;;;;;6154099;23;19920;-84
2022/04/09 08:36:49;;;;;;;;;;;6.50;99.90;;;;;;6154319;23;19921;-85
2022/04/09 08:39:17;;;;;;;;;;;6.60;99.90;;;;;;6133005;23;19925;-85
2022/04/09 08:41:47;;;;;;;;;;;6.60;99.90;;;;;;6133140;23;19931;-84
2022/04/09 08:44:18;;;;;;;;;;;6.60;99.90;;;;;;6153803;23;19921;-84
2022/04/09 08:46:46;;;;;;;;;;;6.90;99.90;;;;;;6135854;23;19931;-85
2022/04/09 08:49:19;;;;;;;;;;;6.90;99.90;;;;;;6133416;23;19925;-85
2022/04/09 08:51:47;;;;;;;;;;;6.90;99.90;;;;;;6130937;23;19924;-85
2022/04/09 08:54:18;;;;;;;;;;;7.00;99.90;;;;;;6149742;23;19925;-84
2022/04/09 08:56:49;;;;;;;;;;;7.10;99.90;;;;;;6128668;23;20358;-85
2022/04/09 08:59:18;;;;;;;;;;;7.20;99.90;;;;;;6151972;23;19921;-84
2022/04/09 09:01:47;;;;;;;;;;;7.30;99.90;;;;;;6125715;23;20219;-86
2022/04/09 09:04:17;;;;;;;;;;;7.40;99.90;;;;;;6101591;23;19925;-85
2022/04/09 09:06:45;;;;;;;;;;;7.40;99.90;;;;;;6153277;23;19928;-85
2022/04/09 09:09:27;;;;;;;;;;;7.50;99.90;;;;;;6132073;23;19925;-85
2022/04/09 09:11:55;;;;;;;;;;;7.60;99.90;;;;;;6148041;23;19943;-84
2022/04/09 09:14:36;;;;;;;;;;;7.70;99.90;;;;;;6145956;23;19925;-89
2022/04/09 09:17:04;;;;;;;;;;;7.70;99.90;;;;;;6126891;23;19931;-87
2022/04/09 09:19:40;;;;;;;;;;;7.80;99.90;;;;;;6127313;23;19927;-84
2022/04/09 09:22:42;;;;;;;;;;;7.90;99.90;;;;;;6130997;23;19921;-85
2022/04/09 09:25:13;;;;;;;;;;;8.00;99.90;;;;;;6131902;23;20401;-84
2022/04/09 09:27:40;;;;;;;;;;;8.20;99.90;;;;;;6126387;23;19924;-85
2022/04/09 09:30:11;;;;;;;;;;;8.10;99.90;;;;;;6150346;23;20637;-85
2022/04/09 09:32:41;;;;;;;;;;;8.10;99.90;;;;;;6133022;23;19920;-85
2022/04/09 09:35:14;;;;;;;;;;;8.20;99.90;;;;;;6128554;23;19921;-86
2022/04/09 09:37:43;;;;;;;;;;;8.20;99.90;;;;;;6077497;23;19925;-86
2022/04/09 09:40:30;;;;;;;;;;;8.30;99.90;;;;;;6103177;23;19927;-85
2022/04/09 09:43:16;;;;;;;;;;;8.40;99.90;;;;;;6133152;23;19925;-87
2022/04/09 09:45:46;;;;;;;;;;;8.70;99.90;;;;;;6108157;23;19921;-87
2022/04/09 09:48:23;;;;;;;;;;;8.60;99.90;;;;;;6136817;23;20224;-86
2022/04/09 09:50:52;;;;;;;;;;;8.60;99.90;;;;;;6135297;23;19925;-87
2022/04/09 09:53:27;;;;;;;;;;;8.70;99.90;;;;;;6137699;23;20251;-86
2022/04/09 09:56:01;;;;;;;;;;;8.80;99.90;;;;;;6105082;23;19925;-84
2022/04/09 09:58:31;;;;;;;;;;;8.80;99.90;;;;;;6107152;23;19929;-89
2022/04/09 10:01:11;;;;;;;;;;;8.90;99.90;;;;;;6133882;23;19924;-88
2022/04/09 10:03:40;;;;;;;;;;;9.00;99.90;;;;;;6139583;23;19921;-84
2022/04/09 10:06:09;;;;;;;;;;;9.10;99.10;;;;;;6114435;23;19931;-85
2022/04/09 10:08:37;;;;;;;;;;;9.00;99.10;;;;;;6140301;23;19924;-86
2022/04/09 10:11:07;;;;;;;;;;;9.10;99.00;;;;;;6137410;23;19925;-84
2022/04/09 10:13:42;;;;;;;;;;;9.30;99.50;;;;;;6136480;23;19980;-85
2022/04/09 10:16:11;;;;;;;;;;;9.30;98.10;;;;;;6108556;23;19931;-84
2022/04/09 10:18:41;;;;;;;;;;;9.50;97.30;;;;;;6134440;23;19925;-83
2022/04/09 10:21:09;;;;;;;;;;;9.60;97.10;;;;;;6127366;23;19921;-85
2022/04/09 10:23:41;;;;;;;;;;;9.70;96.70;;;;;;6135815;23;19921;-91
2022/04/09 10:26:16;;;;;;;;;;;9.80;97.00;;;;;;6084692;23;19921;-87
2022/04/09 10:28:48;;;;;;;;;;;10.00;96.70;;;;;;6135266;23;19965;-86
2022/04/09 10:31:22;;;;;;;;;;;10.00;96.30;;;;;;6106359;23;19943;-86
2022/04/09 10:33:56;;;;;;;;;;;10.00;96.50;;;;;;6103500;23;20359;-84
2022/04/09 10:37:04;;;;;;;;;;;10.00;96.00;;;;;;6127586;23;19927;-84
2022/04/09 10:39:45;;;;;;;;;;;10.10;95.60;;;;;;6130969;23;19928;-84
2022/04/09 10:42:33;;;;;;;;;;;9.90;95.30;;;;;;6110709;23;19954;-84
2022/04/09 10:45:04;;;;;;;;;;;9.80;95.20;;;;;;6112800;23;19935;-84
2022/04/09 10:47:53;;;;;;;;;;;9.80;95.60;;;;;;6109392;23;19931;-86
2022/04/09 10:50:23;;;;;;;;;;;9.90;95.40;;;;;;6137577;23;19931;-86
2022/04/09 10:52:51;;;;;;;;;;;10.00;93.00;;;;;;6117041;23;19931;-85
2022/04/09 10:55:24;;;;;;;;;;;10.00;92.50;;;;;;6136776;23;19921;-87
2022/04/09 10:58:04;;;;;;;;;;;10.00;92.40;;;;;;6092011;23;19925;-88
2022/04/09 11:00:37;;;;;;;;;;;10.10;92.60;;;;;;6109921;23;19921;-84
2022/04/09 11:03:33;;;;;;;;;;;10.00;91.90;;;;;;6134283;23;19921;-84
2022/04/09 11:06:20;;;;;;;;;;;10.10;92.10;;;;;;6109200;23;19926;-85
2022/04/09 11:08:59;;;;;;;;;;;10.00;90.80;;;;;;6137846;23;19925;-85
2022/04/09 11:11:28;;;;;;;;;;;10.00;90.40;;;;;;6129425;23;19935;-85
2022/04/09 11:13:57;;;;;;;;;;;10.00;91.10;;;;;;6135768;23;19925;-86
2022/04/09 11:16:34;;;;;;;;;;;10.10;91.30;;;;;;6130358;23;19929;-86
2022/04/09 11:19:02;;;;;;;;;;;10.20;91.40;;;;;;6136454;23;19947;-85
2022/04/09 11:21:40;;;;;;;;;;;10.90;90.70;;;;;;6108477;23;19925;-85
2022/04/09 11:24:14;;;;;;;;;;;10.60;89.40;;;;;;6110306;23;19920;-86
2022/04/09 11:26:53;;;;;;;;;;;12.30;89.90;;;;;;6109150;23;20392;-86
2022/04/09 11:29:31;;;;;;;;;;;11.00;82.80;;;;;;6101626;23;19936;-84
2022/04/09 11:32:02;;;;;;;;;;;11.00;83.40;;;;;;6132808;23;19925;-87
2022/04/09 11:34:47;;;;;;;;;;;11.20;82.00;;;;;;6114197;23;19931;-86
2022/04/09 11:37:17;;;;;;;;;;;11.30;82.90;;;;;;6157523;23;19925;-87
2022/04/09 11:39:46;;;;;;;;;;;11.30;84.40;;;;;;6136111;23;19921;-84
2022/04/09 11:42:15;;;;;;;;;;;11.40;85.10;;;;;;6131567;23;20242;-86
2022/04/09 11:44:50;;;;;;;;;;;11.50;84.20;;;;;;6157864;23;19944;-91
2022/04/09 11:47:25;;;;;;;;;;;11.50;84.30;;;;;;6135532;23;19931;-87
2022/04/09 11:49:57;;;;;;;;;;;11.40;83.80;;;;;;6134965;23;19925;-87
2022/04/09 11:52:29;;;;;;;;;;;11.40;83.70;;;;;;6152304;23;19931;-86
2022/04/09 11:55:00;;;;;;;;;;;11.40;84.20;;;;;;6132140;23;19925;-89
2022/04/09 11:57:31;;;;;;;;;;;11.50;84.20;;;;;;6151033;23;19935;-84
2022/04/09 12:00:06;;;;;;;;;;;12.80;84.00;;;;;;6150787;23;19928;-84
2022/04/09 12:02:41;;;;;;;;;;;11.80;83.70;;;;;;6126458;23;19935;-86
2022/04/09 12:05:11;;;;;;;;;;;12.00;82.60;;;;;;6126001;23;19921;-86
2022/04/09 12:07:45;;;;;;;;;;;12.10;82.60;;;;;;6153407;23;19921;-84
2022/04/09 12:10:25;;;;;;;;;;;12.20;80.00;;;;;;6103384;23;20505;-84
2022/04/09 12:13:00;;;;;;;;;;;12.40;79.30;;;;;;6151530;23;19921;-84
2022/04/09 12:15:32;;;;;;;;;;;12.50;79.50;;;;;;6127387;23;20353;-84
2022/04/09 12:18:27;;;;;;;;;;;12.70;79.90;;;;;;6128070;23;19921;-86
2022/04/09 12:21:27;;;;;;;;;;;12.70;78.80;;;;;;6130232;23;19924;-86
2022/04/09 12:24:05;;;;;;;;;;;13.70;77.70;;;;;;6152599;23;19944;-87
2022/04/09 12:26:41;;;;;;;;;;;12.50;76.90;;;;;;6132269;23;19932;-90
2022/04/09 12:29:22;;;;;;;;;;;12.40;76.10;;;;;;6130475;23;20270;-87
2022/04/09 12:32:21;;;;;;;;;;;12.40;75.20;;;;;;6109830;23;19935;-89
2022/04/09 12:34:55;;;;;;;;;;;12.50;75.00;;;;;;6135837;23;19947;-87
2022/04/09 12:37:48;;;;;;;;;;;12.60;75.60;;;;;;6162056;23;19931;-85
2022/04/09 12:40:19;;;;;;;;;;;12.70;74.60;;;;;;6108975;23;19925;-87
2022/04/09 12:42:55;;;;;;;;;;;11.90;73.20;;;;;;6135114;23;19925;-86
2022/04/09 12:45:35;;;;;;;;;;;13.00;72.40;;;;;;6161881;23;19917;-86
2022/04/09 12:48:11;;;;;;;;;;;13.10;72.60;;;;;;6140355;23;19931;-87
2022/04/09 12:50:47;;;;;;;;;;;13.20;73.20;;;;;;6157385;23;20330;-85
2022/04/09 12:53:15;;;;;;;;;;;13.20;73.20;;;;;;6130466;23;19935;-84
2022/04/09 12:55:53;;;;;;;;;;;13.80;73.10;;;;;;6151657;23;19940;-87
2022/04/09 12:58:23;;;;;;;;;;;13.00;73.20;;;;;;6134149;23;19931;-87
2022/04/09 13:00:51;;;;;;;;;;;12.90;73.30;;;;;;6157698;23;19927;-90
2022/04/09 13:03:22;;;;;;;;;;;12.90;73.40;;;;;;6130184;23;19925;-86
2022/04/09 13:05:52;;;;;;;;;;;12.90;72.40;;;;;;6153912;23;19925;-86
2022/04/09 13:08:21;;;;;;;;;;;12.90;73.30;;;;;;6156125;23;19925;-85
2022/04/09 13:10:56;;;;;;;;;;;12.90;73.70;;;;;;6133488;23;20252;-85
2022/04/09 13:13:27;;;;;;;;;;;12.90;71.60;;;;;;6153441;23;19931;-87
2022/04/09 13:15:58;;;;;;;;;;;13.20;72.80;;;;;;6106595;23;19925;-85
2022/04/09 13:18:29;;;;;;;;;;;13.00;73.30;;;;;;6160052;23;19928;-85
2022/04/09 13:20:57;;;;;;;;;;;13.10;72.70;;;;;;6135055;23;19925;-87
2022/04/09 13:23:30;;;;;;;;;;;12.90;72.10;;;;;;6108535;23;19913;-88
2022/04/09 13:25:58;;;;;;;;;;;12.70;71.90;;;;;;6156341;23;20429;-87
2022/04/09 13:28:29;;;;;;;;;;;12.60;72.10;;;;;;6130516;23;19925;-86
2022/04/09 13:31:00;;;;;;;;;;;12.50;72.80;;;;;;6127204;23;20372;-85
2022/04/09 13:33:29;;;;;;;;;;;14.20;74.30;;;;;;6152531;23;20266;-85
2022/04/09 13:35:59;;;;;;;;;;;11.10;71.80;;;;;;6105093;23;19925;-85
2022/04/09 13:38:30;;;;;;;;;;;12.40;71.10;;;;;;6125915;23;19921;-87
2022/04/09 13:41:01;;;;;;;;;;;12.20;71.60;;;;;;6122738;23;20246;-85
2022/04/09 13:43:32;;;;;;;;;;;12.10;71.00;;;;;;6121408;23;19924;-85
2022/04/09 13:46:05;;;;;;;;;;;12.00;71.90;;;;;;6124328;23;19933;-86
2022/04/09 13:48:37;;;;;;;;;;;12.20;73.50;;;;;;6099028;23;19925;-85
2022/04/09 13:51:05;;;;;;;;;;;12.60;72.70;;;;;;6127172;23;20330;-86
2022/04/09 13:53:33;;;;;;;;;;;12.50;71.50;;;;;;6130728;23;19920;-85
2022/04/09 13:56:04;;;;;;;;;;;12.80;69.90;;;;;;6128562;23;19921;-85
2022/04/09 13:58:36;;;;;;;;;;;13.10;69.40;;;;;;6128454;23;19921;-84
2022/04/09 14:01:05;;;;;;;;;;;13.40;68.60;;;;;;6154615;23;19921;-86
2022/04/09 14:03:35;;;;;;;;;;;13.90;68.10;;;;;;6130435;23;19927;-87
2022/04/09 14:06:04;;;;;;;;;;;14.40;66.80;;;;;;6136279;23;19929;-85
2022/04/09 14:08:37;;;;;;;;;;;14.50;66.00;;;;;;6102020;23;19935;-86
2022/04/09 14:11:31;;;;;;;;;;;15.20;64.30;;;;;;6126597;23;19927;-85
2022/04/09 14:14:00;;;;;;;;;;;15.40;63.40;;;;;;6157974;23;20524;-87
2022/04/09 14:16:32;;;;;;;;;;;15.70;63.80;;;;;;6126391;23;19921;-84
2022/04/09 14:19:00;;;;;;;;;;;15.80;60.40;;;;;;6128097;23;19921;-85
2022/04/09 14:21:30;;;;;;;;;;;16.30;61.60;;;;;;6124793;23;20242;-85
2022/04/09 14:24:05;;;;;;;;;;;16.20;59.60;;;;;;6127287;23;20258;-84
2022/04/09 14:26:38;;;;;;;;;;;15.20;59.70;;;;;;6126349;23;19929;-86
2022/04/09 14:29:07;;;;;;;;;;;16.70;60.80;;;;;;6151165;23;19921;-85
2022/04/09 14:31:39;;;;;;;;;;;16.60;60.50;;;;;;6132353;23;19921;-86
2022/04/09 14:34:12;;;;;;;;;;;16.30;59.40;;;;;;6152479;23;20252;-86
2022/04/09 14:36:44;;;;;;;;;;;17.00;59.90;;;;;;6126037;23;19932;-86
2022/04/09 14:39:19;;;;;;;;;;;17.40;58.70;;;;;;6124704;23;19927;-87
2022/04/09 14:42:02;;;;;;;;;;;17.50;57.10;;;;;;6099809;23;19921;-89
2022/04/09 14:44:38;;;;;;;;;;;17.60;56.60;;;;;;6103475;23;19931;-86
2022/04/09 14:47:09;;;;;;;;;;;17.90;58.50;;;;;;6132838;23;19936;-86
2022/04/09 14:49:39;;;;;;;;;;;17.90;56.30;;;;;;6104824;23;19932;-88
2022/04/09 14:52:26;;;;;;;;;;;17.70;56.30;;;;;;6133224;23;19928;-88